Time;durP1;ratioP1;P1;durP2;ratioP2;P2;SDS_P1;SDS_P2;PMS_P1;PMS_P2;Temp;Humidity;BMP_temperature;BMP_pressure;BME280_temperature;BME280_humidity;BME280_pressure;Samples;Min_cycle;Max_cycle;Signal;HPM_P1;HPM_P2
2023/05/14 00:01:39;;;;;;;14.13;6.47;;;12.00;99.90;;;;;;4977834;28;20133;-72
2023/05/14 00:04:05;;;;;;;11.53;7.20;;;12.00;99.90;;;;;;4977922;28;20108;-77
2023/05/14 00:06:30;;;;;;;13.20;6.90;;;11.90;99.90;;;;;;4977734;28;20325;-72
2023/05/14 00:08:56;;;;;;;11.70;6.17;;;11.90;99.90;;;;;;4994336;28;20126;-72
2023/05/14 00:11:22;;;;;;;11.97;7.23;;;12.00;99.90;;;;;;4995154;28;20069;-72
2023/05/14 00:13:49;;;;;;;10.70;5.93;;;12.00;99.90;;;;;;4993546;28;20082;-72
2023/05/14 00:16:15;;;;;;;10.17;7.30;;;12.00;99.90;;;;;;4995283;28;20133;-72
2023/05/14 00:18:40;;;;;;;11.23;6.83;;;12.00;99.90;;;;;;4993446;28;20328;-72
2023/05/14 00:21:06;;;;;;;15.37;8.73;;;11.90;99.90;;;;;;4978302;28;20042;-72
2023/05/14 00:23:32;;;;;;;14.00;8.20;;;11.90;99.90;;;;;;4994132;28;20057;-72
2023/05/14 00:25:58;;;;;;;13.33;6.90;;;11.90;99.90;;;;;;4993564;28;20046;-72
2023/05/14 00:28:23;;;;;;;12.23;8.43;;;12.00;99.90;;;;;;4961319;28;20115;-72
2023/05/14 00:30:50;;;;;;;13.50;8.77;;;12.00;99.90;;;;;;4993628;28;20046;-72
2023/05/14 00:33:15;;;;;;;13.33;8.80;;;11.90;99.90;;;;;;4994439;28;20057;-72
2023/05/14 00:35:41;;;;;;;14.67;9.53;;;11.90;99.90;;;;;;4994704;28;20294;-72
2023/05/14 00:38:07;;;;;;;13.53;9.87;;;11.90;99.90;;;;;;4961500;28;20116;-72
2023/05/14 00:40:33;;;;;;;12.53;9.73;;;11.80;99.90;;;;;;4993638;28;20180;-72
2023/05/14 00:42:58;;;;;;;16.53;9.10;;;11.80;99.90;;;;;;4977235;28;20085;-72
2023/05/14 00:45:24;;;;;;;15.53;10.10;;;11.70;99.90;;;;;;4977192;28;20133;-72
2023/05/14 00:47:51;;;;;;;14.13;10.43;;;11.70;99.90;;;;;;4994257;28;20054;-72
2023/05/14 00:50:17;;;;;;;13.60;10.23;;;11.70;99.90;;;;;;4994097;28;20286;-72
2023/05/14 00:52:43;;;;;;;13.43;9.60;;;11.60;99.90;;;;;;4994736;28;20288;-72
2023/05/14 00:55:12;;;;;;;15.00;9.77;;;11.60;99.90;;;;;;4993190;28;20326;-72
2023/05/14 00:57:38;;;;;;;12.97;9.93;;;11.50;99.90;;;;;;4993139;28;20408;-72
2023/05/14 01:00:04;;;;;;;13.03;9.80;;;11.50;99.90;;;;;;4992935;28;20292;-72
2023/05/14 01:02:30;;;;;;;12.37;9.70;;;11.50;99.90;;;;;;4994014;28;20329;-72
2023/05/14 01:04:56;;;;;;;12.57;9.97;;;11.50;99.90;;;;;;4994235;28;20661;-72
2023/05/14 01:07:21;;;;;;;15.93;10.43;;;11.50;99.90;;;;;;4993963;28;20061;-72
2023/05/14 01:09:51;;;;;;;14.80;9.83;;;11.40;99.90;;;;;;4976868;28;20298;-72
2023/05/14 01:12:41;;;;;;;14.57;9.33;;;11.50;99.90;;;;;;4992730;28;20081;-72
2023/05/14 01:15:19;;;;;;;14.00;9.97;;;11.50;99.90;;;;;;4992960;28;20301;-72
2023/05/14 01:17:50;;;;;;;12.47;9.23;;;11.50;99.90;;;;;;4993821;28;20289;-72
2023/05/14 01:20:16;;;;;;;15.67;10.47;;;11.50;99.90;;;;;;4993997;28;20742;-72
2023/05/14 01:22:42;;;;;;;11.23;9.27;;;11.50;99.90;;;;;;4980002;28;20288;-72
2023/05/14 01:25:08;;;;;;;15.73;10.23;;;11.50;99.90;;;;;;4996896;28;20113;-72
2023/05/14 01:27:45;;;;;;;14.27;10.00;;;11.50;99.90;;;;;;4981287;28;20308;-72
2023/05/14 01:30:32;;;;;;;12.33;9.07;;;11.50;99.90;;;;;;4997157;28;20369;-72
2023/05/14 01:33:01;;;;;;;15.27;9.47;;;11.50;99.90;;;;;;4998233;28;20292;-72
2023/05/14 01:35:29;;;;;;;11.80;9.63;;;11.60;99.90;;;;;;4996188;28;20648;-72
2023/05/14 01:37:57;;;;;;;16.00;9.47;;;11.70;99.90;;;;;;4980521;28;20293;-72
2023/05/14 01:40:24;;;;;;;12.43;8.37;;;11.70;99.90;;;;;;4997465;28;20376;-72
2023/05/14 01:42:51;;;;;;;15.40;8.97;;;11.70;99.90;;;;;;4980513;28;20340;-72
2023/05/14 01:45:20;;;;;;;12.30;8.90;;;11.60;99.90;;;;;;4980372;28;20291;-72
2023/05/14 01:47:46;;;;;;;14.47;9.00;;;11.60;99.90;;;;;;4997478;28;20295;-72
2023/05/14 01:50:11;;;;;;;13.23;8.87;;;11.50;99.90;;;;;;4980254;28;20285;-72
2023/05/14 01:52:37;;;;;;;14.00;9.07;;;11.50;99.90;;;;;;4996283;28;20078;-72
2023/05/14 01:55:04;;;;;;;14.87;9.03;;;11.50;99.90;;;;;;4996530;28;20050;-72
2023/05/14 01:57:30;;;;;;;12.70;8.17;;;11.50;99.90;;;;;;4996084;28;20050;-72
2023/05/14 01:59:55;;;;;;;15.10;9.07;;;11.50;99.90;;;;;;4996074;28;20293;-72
2023/05/14 02:02:21;;;;;;;13.03;8.73;;;11.40;99.90;;;;;;4996457;28;20319;-72
2023/05/14 02:04:47;;;;;;;12.30;8.67;;;11.40;99.90;;;;;;4980348;28;20050;-72
2023/05/14 02:07:13;;;;;;;14.23;8.50;;;11.40;99.90;;;;;;4997174;28;20054;-71
2023/05/14 02:09:39;;;;;;;12.77;8.60;;;11.40;99.90;;;;;;4980585;28;20125;-72
2023/05/14 02:12:06;;;;;;;10.57;7.67;;;11.50;99.90;;;;;;4995837;28;20533;-72
2023/05/14 02:14:32;;;;;;;13.30;8.13;;;11.50;99.90;;;;;;4995920;28;20325;-72
2023/05/14 02:16:58;;;;;;;12.83;8.30;;;11.40;99.90;;;;;;4996665;28;20340;-72
2023/05/14 02:19:24;;;;;;;12.63;8.20;;;11.40;99.90;;;;;;4963993;28;20049;-72
2023/05/14 02:21:49;;;;;;;13.03;8.20;;;11.40;99.90;;;;;;4995641;28;20050;-72
2023/05/14 02:24:15;;;;;;;14.77;8.20;;;11.40;99.90;;;;;;4995770;28;20053;-72
2023/05/14 02:26:41;;;;;;;12.70;7.67;;;11.30;99.90;;;;;;4996394;28;20069;-72
2023/05/14 02:29:07;;;;;;;14.30;8.40;;;11.40;99.90;;;;;;4996660;28;20046;-72
2023/05/14 02:31:33;;;;;;;16.27;8.87;;;11.30;99.90;;;;;;4979022;28;20104;-72
2023/05/14 02:34:00;;;;;;;13.17;8.63;;;11.20;99.90;;;;;;4995020;28;20673;-72
2023/05/14 02:36:26;;;;;;;16.43;9.30;;;11.20;99.90;;;;;;4979380;28;20100;-72
2023/05/14 02:38:52;;;;;;;14.90;9.30;;;11.20;99.90;;;;;;4995015;28;20285;-72
2023/05/14 02:41:18;;;;;;;20.47;11.03;;;11.20;99.90;;;;;;4979363;28;20117;-72
2023/05/14 02:43:44;;;;;;;16.87;10.30;;;11.20;99.90;;;;;;4995253;28;20057;-72
2023/05/14 02:46:09;;;;;;;17.77;11.07;;;11.20;99.90;;;;;;4979284;28;20289;-72
2023/05/14 02:48:35;;;;;;;17.60;10.67;;;11.20;99.90;;;;;;4979045;28;20166;-72
2023/05/14 02:51:01;;;;;;;16.03;11.47;;;11.20;99.90;;;;;;4996738;28;20042;-72
2023/05/14 02:53:27;;;;;;;15.63;10.43;;;11.30;99.90;;;;;;4995157;28;20133;-72
2023/05/14 02:55:52;;;;;;;16.07;11.47;;;11.30;99.90;;;;;;4995054;28;20466;-72
2023/05/14 02:58:18;;;;;;;19.27;11.73;;;11.20;99.90;;;;;;4979041;28;20057;-72
2023/05/14 03:00:44;;;;;;;19.30;10.90;;;11.30;99.90;;;;;;4995966;28;20108;-72
2023/05/14 03:03:10;;;;;;;16.97;10.87;;;11.30;99.90;;;;;;4995061;28;20053;-72
2023/05/14 03:05:36;;;;;;;18.80;11.13;;;11.20;99.90;;;;;;4962778;28;20061;-72
2023/05/14 03:08:01;;;;;;;17.77;11.17;;;11.20;99.90;;;;;;4978881;28;20141;-72
2023/05/14 03:10:28;;;;;;;16.30;11.20;;;11.20;99.90;;;;;;4995215;28;20501;-73
2023/05/14 03:12:54;;;;;;;16.17;11.20;;;11.30;99.90;;;;;;4994657;28;20503;-72
2023/05/14 03:15:20;;;;;;;21.67;11.70;;;11.30;99.90;;;;;;4978965;28;20332;-72
2023/05/14 03:17:45;;;;;;;14.60;11.17;;;11.30;99.90;;;;;;4994576;28;20126;-72
2023/05/14 03:20:12;;;;;;;17.63;10.93;;;11.40;99.90;;;;;;4994827;28;20090;-72
2023/05/14 03:22:37;;;;;;;20.37;11.07;;;11.40;99.90;;;;;;4978629;28;20057;-72
2023/05/14 03:25:03;;;;;;;16.70;10.83;;;11.40;99.90;;;;;;4978503;28;20301;-72
2023/05/14 03:27:29;;;;;;;18.40;10.37;;;11.40;99.90;;;;;;4994567;28;20046;-73
2023/05/14 03:29:55;;;;;;;16.87;10.40;;;11.40;99.90;;;;;;4994429;28;20372;-72
2023/05/14 03:32:20;;;;;;;19.07;9.97;;;11.30;99.90;;;;;;4978111;28;20044;-72
2023/05/14 03:34:46;;;;;;;20.13;9.37;;;11.30;99.90;;;;;;4977607;28;20062;-72
2023/05/14 03:37:12;;;;;;;14.90;9.70;;;11.30;99.90;;;;;;4995044;28;20129;-72
2023/05/14 03:39:37;;;;;;;16.77;9.13;;;11.30;99.90;;;;;;4995397;28;20054;-72
2023/05/14 03:42:03;;;;;;;19.53;8.40;;;11.30;99.90;;;;;;4962964;28;20061;-72
2023/05/14 03:44:29;;;;;;;14.57;7.17;;;11.30;99.90;;;;;;4993533;28;20443;-77
2023/05/14 03:46:55;;;;;;;17.03;7.67;;;11.30;99.90;;;;;;4994384;28;20049;-72
2023/05/14 03:49:21;;;;;;;15.33;6.53;;;11.40;99.90;;;;;;4994261;28;20056;-72
2023/05/14 03:51:46;;;;;;;17.50;7.27;;;11.40;99.90;;;;;;4994133;28;20132;-71
2023/05/14 03:54:12;;;;;;;17.73;8.00;;;11.30;99.90;;;;;;4978017;28;20470;-71
2023/05/14 03:56:38;;;;;;;17.73;7.23;;;11.30;99.90;;;;;;4995305;28;20529;-72
2023/05/14 03:59:03;;;;;;;16.63;8.10;;;11.40;99.90;;;;;;4961952;28;20547;-72
2023/05/14 04:01:29;;;;;;;15.03;7.70;;;11.40;99.90;;;;;;4977754;28;20057;-72
2023/05/14 04:03:55;;;;;;;18.63;8.03;;;11.40;99.90;;;;;;4945786;28;20050;-71
2023/05/14 04:06:21;;;;;;;19.10;8.53;;;11.40;99.90;;;;;;4978300;28;20049;-71
2023/05/14 04:08:46;;;;;;;19.57;7.60;;;11.50;99.90;;;;;;4993885;28;20054;-71
2023/05/14 04:11:12;;;;;;;16.53;7.77;;;11.50;99.90;;;;;;4993705;28;20066;-71
2023/05/14 04:13:38;;;;;;;16.03;7.50;;;11.50;99.90;;;;;;4994703;28;20046;-71
2023/05/14 04:16:04;;;;;;;15.57;7.10;;;11.40;99.90;;;;;;4977593;28;20043;-71
2023/05/14 04:18:33;;;;;;;15.00;7.67;;;11.40;99.90;;;;;;4978064;28;20050;-71
2023/05/14 04:20:59;;;;;;;17.17;7.20;;;11.40;99.90;;;;;;4994077;28;20310;-71
2023/05/14 04:23:25;;;;;;;16.37;7.47;;;11.40;99.90;;;;;;4993135;28;20859;-71
2023/05/14 04:25:51;;;;;;;16.30;8.10;;;11.40;99.90;;;;;;4993416;28;20286;-71
2023/05/14 04:28:16;;;;;;;19.87;7.20;;;11.40;99.90;;;;;;4993993;28;20493;-71
2023/05/14 04:30:42;;;;;;;19.53;8.07;;;11.50;99.90;;;;;;4993237;28;20046;-72
2023/05/14 04:33:08;;;;;;;14.03;7.53;;;11.60;99.90;;;;;;4977859;28;20053;-71
2023/05/14 04:35:33;;;;;;;26.80;10.13;;;11.60;99.90;;;;;;4977168;28;20058;-71
2023/05/14 04:37:59;;;;;;;21.17;8.67;;;11.60;99.90;;;;;;4993062;28;20507;-71
2023/05/14 04:40:25;;;;;;;18.07;8.20;;;11.70;99.90;;;;;;4993350;28;20042;-71
2023/05/14 04:42:51;;;;;;;18.43;7.97;;;11.70;99.90;;;;;;4977139;28;20112;-71
2023/05/14 04:45:16;;;;;;;17.27;7.97;;;11.70;99.90;;;;;;4977667;28;20085;-71
2023/05/14 04:47:43;;;;;;;18.67;7.90;;;11.80;99.90;;;;;;4977077;28;20489;-71
2023/05/14 04:50:09;;;;;;;14.20;6.50;;;11.80;99.90;;;;;;4993122;28;20447;-71
2023/05/14 04:52:35;;;;;;;19.53;7.87;;;11.90;99.90;;;;;;4994097;28;20302;-71
2023/05/14 04:55:01;;;;;;;20.60;7.20;;;12.00;99.90;;;;;;4992824;28;20054;-71
2023/05/14 04:57:27;;;;;;;18.70;7.00;;;12.00;99.90;;;;;;4993222;28;20049;-71
2023/05/14 04:59:52;;;;;;;19.57;6.60;;;12.00;99.90;;;;;;4993366;28;20129;-72
2023/05/14 05:02:18;;;;;;;15.20;7.53;;;12.10;99.90;;;;;;4993067;28;20470;-71
2023/05/14 05:04:44;;;;;;;17.10;6.43;;;12.10;99.90;;;;;;4976943;28;20558;-71
2023/05/14 05:07:09;;;;;;;15.67;7.90;;;12.20;99.90;;;;;;4992915;28;20108;-71
2023/05/14 05:09:35;;;;;;;13.03;6.23;;;12.30;99.90;;;;;;4976879;28;20078;-71
2023/05/14 05:12:01;;;;;;;14.70;6.57;;;12.30;99.90;;;;;;4992617;28;20042;-71
2023/05/14 05:14:26;;;;;;;14.57;6.73;;;12.40;99.90;;;;;;4994036;28;20038;-71
2023/05/14 05:16:52;;;;;;;12.70;6.90;;;12.40;99.90;;;;;;4960814;28;20080;-71
2023/05/14 05:19:18;;;;;;;16.33;6.83;;;12.50;99.90;;;;;;4976793;28;20057;-71
2023/05/14 05:21:44;;;;;;;16.93;6.97;;;12.50;99.90;;;;;;4976591;28;20047;-72
2023/05/14 05:24:09;;;;;;;15.80;7.17;;;12.50;99.90;;;;;;4992962;28;20129;-72
2023/05/14 05:26:35;;;;;;;12.73;6.40;;;12.60;99.90;;;;;;4993201;28;20038;-72
2023/05/14 05:29:02;;;;;;;16.97;7.30;;;12.70;99.90;;;;;;4992601;28;20050;-71
2023/05/14 05:31:29;;;;;;;15.53;6.67;;;12.80;99.90;;;;;;4960939;28;20121;-71
2023/05/14 05:33:56;;;;;;;16.03;6.30;;;12.90;99.90;;;;;;4993568;28;20369;-71
2023/05/14 05:36:21;;;;;;;14.87;6.87;;;13.00;99.90;;;;;;4994077;28;20757;-72
2023/05/14 05:38:47;;;;;;;15.57;6.40;;;13.10;99.90;;;;;;4992699;28;20296;-71
2023/05/14 05:41:13;;;;;;;13.30;6.33;;;13.20;99.90;;;;;;4977292;28;20042;-71
2023/05/14 05:43:38;;;;;;;13.23;5.57;;;13.40;99.90;;;;;;4992470;28;20445;-72
2023/05/14 05:46:06;;;;;;;16.33;7.37;;;13.60;99.90;;;;;;4976543;28;20050;-71
2023/05/14 05:48:31;;;;;;;14.90;5.77;;;13.90;99.90;;;;;;4992563;28;20043;-71
2023/05/14 05:50:57;;;;;;;16.77;5.93;;;14.20;99.90;;;;;;4992391;28;20302;-72
2023/05/14 05:53:23;;;;;;;14.83;5.33;;;14.20;99.90;;;;;;4992390;28;20050;-71
2023/05/14 05:55:50;;;;;;;16.43;5.50;;;14.40;99.90;;;;;;4992643;28;20050;-72
2023/05/14 05:58:17;;;;;;;12.43;4.83;;;14.40;99.90;;;;;;4993323;28;20505;-72
2023/05/14 06:00:43;;;;;;;15.37;5.30;;;14.60;99.90;;;;;;4992601;28;20296;-71
2023/05/14 06:03:09;;;;;;;14.63;4.77;;;14.60;99.90;;;;;;4992477;28;20298;-71
2023/05/14 06:05:35;;;;;;;13.53;4.67;;;14.70;99.90;;;;;;4993363;28;20050;-71
2023/05/14 06:08:01;;;;;;;11.03;4.40;;;14.60;99.90;;;;;;4962191;28;20510;-72
2023/05/14 06:10:27;;;;;;;11.93;4.43;;;14.70;99.90;;;;;;4997113;28;20057;-71
2023/05/14 06:12:53;;;;;;;13.87;4.93;;;14.70;99.90;;;;;;4979855;28;20289;-72
2023/05/14 06:15:19;;;;;;;14.43;5.40;;;14.70;99.90;;;;;;4997635;28;20057;-71
2023/05/14 06:17:45;;;;;;;12.43;4.40;;;14.60;99.90;;;;;;4996008;28;20046;-71
2023/05/14 06:20:11;;;;;;;23.27;8.87;;;14.50;99.90;;;;;;4996269;28;20052;-71
2023/05/14 06:22:37;;;;;;;15.20;5.57;;;14.50;99.90;;;;;;4996898;28;20047;-71
2023/05/14 06:25:03;;;;;;;15.13;5.20;;;14.40;99.90;;;;;;4996810;28;20746;-72
2023/05/14 06:27:29;;;;;;;17.47;5.57;;;14.40;99.90;;;;;;4995837;28;20050;-72
2023/05/14 06:29:55;;;;;;;14.20;5.83;;;14.40;99.90;;;;;;4996735;28;20816;-72
2023/05/14 06:32:20;;;;;;;15.17;5.13;;;14.40;99.90;;;;;;4995705;28;20108;-72
2023/05/14 06:34:46;;;;;;;12.33;5.40;;;14.50;99.90;;;;;;4996612;28;20046;-71
2023/05/14 06:37:12;;;;;;;14.40;6.63;;;14.50;99.90;;;;;;4979611;28;20105;-71
2023/05/14 06:39:38;;;;;;;17.57;6.23;;;14.40;99.90;;;;;;4979420;28;20050;-72
2023/05/14 06:42:04;;;;;;;15.53;7.87;;;14.60;99.90;;;;;;4995733;28;20486;-71
2023/05/14 06:44:30;;;;;;;14.00;5.60;;;14.70;99.90;;;;;;4996102;28;20289;-72
2023/05/14 06:46:56;;;;;;;13.73;6.57;;;14.80;99.90;;;;;;4979249;28;20615;-72
2023/05/14 06:49:22;;;;;;;15.37;5.83;;;15.20;99.90;;;;;;4979672;28;20050;-71
2023/05/14 06:51:47;;;;;;;11.90;6.00;;;15.80;99.90;;;;;;4995696;28;20061;-71
2023/05/14 06:54:13;;;;;;;12.90;5.50;;;16.10;99.90;;;;;;4979913;28;20134;-71
2023/05/14 06:56:39;;;;;;;10.00;4.80;;;16.60;99.90;;;;;;4995358;28;20508;-72
2023/05/14 06:59:05;;;;;;;13.40;5.07;;;16.90;99.90;;;;;;4995131;28;20054;-72
2023/05/14 07:01:30;;;;;;;15.27;5.17;;;17.30;99.90;;;;;;4962904;28;20069;-71
2023/05/14 07:03:56;;;;;;;12.90;4.73;;;17.80;99.90;;;;;;4994898;28;20057;-72
2023/05/14 07:06:22;;;;;;;14.10;5.50;;;17.90;99.90;;;;;;4995106;28;20129;-72
2023/05/14 07:08:48;;;;;;;13.07;6.00;;;17.90;99.90;;;;;;4962581;28;20050;-72
2023/05/14 07:11:14;;;;;;;12.77;5.30;;;18.20;99.90;;;;;;4995583;28;20049;-72
2023/05/14 07:13:40;;;;;;;11.63;4.90;;;18.20;99.90;;;;;;4978662;28;20133;-72
2023/05/14 07:16:10;;;;;;;11.93;5.27;;;18.10;99.90;;;;;;4994729;28;20104;-72
2023/05/14 07:18:36;;;;;;;13.93;6.17;;;17.90;99.90;;;;;;4993602;28;20065;-71
2023/05/14 07:21:05;;;;;;;12.67;4.23;;;17.80;99.90;;;;;;4995516;28;20039;-73
2023/05/14 07:23:32;;;;;;;13.17;5.30;;;17.70;99.90;;;;;;4995111;28;20042;-73
2023/05/14 07:25:58;;;;;;;14.87;5.50;;;17.70;99.90;;;;;;4994679;28;20129;-72
2023/05/14 07:28:23;;;;;;;12.63;4.73;;;17.60;99.90;;;;;;4994947;28;20121;-73
2023/05/14 07:30:49;;;;;;;14.43;5.00;;;17.80;99.90;;;;;;4995526;28;20058;-74
2023/05/14 07:33:15;;;;;;;14.40;4.63;;;18.50;99.90;;;;;;4978503;28;20486;-74
2023/05/14 07:35:41;;;;;;;10.73;4.50;;;19.10;99.90;;;;;;4993974;28;20121;-74
2023/05/14 07:38:07;;;;;;;13.17;5.60;;;19.70;99.90;;;;;;4979099;28;20471;-76
2023/05/14 07:40:32;;;;;;;11.00;4.83;;;20.30;99.90;;;;;;4995486;28;20073;-76
2023/05/14 07:42:58;;;;;;;8.43;4.20;;;20.80;99.90;;;;;;4995369;28;20116;-77
2023/05/14 07:45:24;;;;;;;9.27;4.40;;;20.80;99.90;;;;;;4994182;28;20085;-75
2023/05/14 07:47:50;;;;;;;13.13;4.40;;;21.00;99.90;;;;;;4978863;28;20061;-76
2023/05/14 07:50:19;;;;;;;13.90;4.67;;;21.00;99.90;;;;;;4995312;28;20054;-76
2023/05/14 07:52:45;;;;;;;13.47;4.33;;;21.20;99.90;;;;;;4993834;28;20478;-75
2023/05/14 07:55:12;;;;;;;10.70;4.23;;;20.90;99.90;;;;;;4993969;28;20050;-76
2023/05/14 07:57:37;;;;;;;10.70;4.60;;;21.00;99.90;;;;;;4994925;28;20046;-76
2023/05/14 08:00:07;;;;;;;11.43;4.80;;;20.90;99.90;;;;;;4993835;28;20038;-74
2023/05/14 08:02:33;;;;;;;12.13;4.13;;;20.90;99.90;;;;;;4994626;28;20057;-74
2023/05/14 08:04:58;;;;;;;11.30;4.47;;;20.70;99.90;;;;;;4994968;28;20403;-79
2023/05/14 08:07:26;;;;;;;12.57;4.20;;;20.80;99.90;;;;;;4977440;28;20188;-76
2023/05/14 08:09:52;;;;;;;11.17;3.80;;;20.70;99.90;;;;;;4995664;28;20061;-76
2023/05/14 08:12:18;;;;;;;10.40;3.80;;;20.70;99.90;;;;;;4995080;28;20371;-75
2023/05/14 08:14:43;;;;;;;11.07;4.77;;;20.50;99.90;;;;;;4994777;28;20054;-75
2023/05/14 08:17:09;;;;;;;13.63;4.40;;;20.20;99.90;;;;;;4994736;28;20054;-76
2023/05/14 08:19:35;;;;;;;11.77;4.30;;;20.00;99.90;;;;;;4993778;28;20116;-76
2023/05/14 08:22:01;;;;;;;14.17;4.93;;;20.00;99.90;;;;;;4994679;28;20042;-78
2023/05/14 08:24:26;;;;;;;12.33;4.37;;;20.20;99.90;;;;;;4993423;28;20105;-77
2023/05/14 08:26:52;;;;;;;10.27;4.30;;;20.40;99.90;;;;;;4994643;28;20125;-76
2023/05/14 08:29:18;;;;;;;10.80;4.60;;;20.50;99.90;;;;;;4994581;28;20137;-76
2023/05/14 08:31:44;;;;;;;11.97;4.20;;;20.30;99.90;;;;;;4976751;28;20434;-76
2023/05/14 08:34:09;;;;;;;13.60;4.13;;;20.00;99.90;;;;;;4994313;28;20441;-75
2023/05/14 08:36:36;;;;;;;11.00;4.17;;;19.70;99.90;;;;;;4995076;28;20054;-76
2023/05/14 08:39:02;;;;;;;13.90;4.27;;;19.50;99.90;;;;;;4993411;28;20061;-80
2023/05/14 08:41:28;;;;;;;12.03;3.83;;;19.40;99.90;;;;;;4977237;28;20140;-76
2023/05/14 08:44:11;;;;;;;14.57;4.50;;;19.20;99.90;;;;;;4994357;28;20046;-75
2023/05/14 08:46:38;;;;;;;10.60;4.63;;;19.10;99.90;;;;;;4993703;28;20062;-75
2023/05/14 08:49:25;;;;;;;11.70;4.73;;;18.90;99.90;;;;;;4992952;28;20096;-77
2023/05/14 08:51:51;;;;;;;12.03;4.43;;;18.90;99.90;;;;;;4994008;28;20053;-75
2023/05/14 08:54:17;;;;;;;9.47;4.17;;;18.90;99.90;;;;;;4994145;28;20046;-72
2023/05/14 08:56:47;;;;;;;10.93;4.73;;;18.80;99.90;;;;;;4993224;28;20054;-73
2023/05/14 08:59:12;;;;;;;14.13;4.57;;;18.90;99.90;;;;;;4993148;28;20050;-74
2023/05/14 09:01:42;;;;;;;10.33;4.77;;;18.90;99.90;;;;;;4994129;28;20125;-74
2023/05/14 09:04:08;;;;;;;12.97;4.70;;;18.80;99.90;;;;;;4992896;28;20049;-74
2023/05/14 09:06:39;;;;;;;12.80;5.13;;;18.80;99.90;;;;;;4994115;28;20062;-72
2023/05/14 09:09:05;;;;;;;13.07;4.83;;;18.80;99.90;;;;;;4993929;28;20062;-73
2023/05/14 09:11:31;;;;;;;11.83;4.07;;;18.90;99.90;;;;;;4993988;28;20043;-74
2023/05/14 09:13:56;;;;;;;10.70;4.33;;;18.90;99.90;;;;;;4994025;28;20065;-72
2023/05/14 09:16:24;;;;;;;9.23;4.70;;;18.80;99.90;;;;;;4992897;28;20043;-72
2023/05/14 09:18:50;;;;;;;10.33;4.50;;;18.80;99.90;;;;;;4992765;28;20054;-72
2023/05/14 09:21:17;;;;;;;12.10;4.30;;;18.70;99.90;;;;;;4994405;28;20049;-70
2023/05/14 09:23:43;;;;;;;10.23;4.20;;;18.70;99.90;;;;;;4992864;28;20093;-72
2023/05/14 09:26:09;;;;;;;11.03;4.17;;;18.80;99.90;;;;;;4993884;28;20042;-72
2023/05/14 09:28:40;;;;;;;13.13;4.53;;;18.80;99.90;;;;;;4993890;28;20047;-71
2023/05/14 09:31:07;;;;;;;12.10;4.67;;;18.90;99.90;;;;;;4994084;28;20046;-71
2023/05/14 09:33:33;;;;;;;12.13;4.83;;;18.90;99.90;;;;;;4976806;28;20054;-71
2023/05/14 09:36:01;;;;;;;14.87;4.07;;;18.80;99.90;;;;;;4976318;28;20556;-71
2023/05/14 09:38:33;;;;;;;10.70;4.67;;;18.70;99.90;;;;;;4994319;28;20382;-71
2023/05/14 09:40:59;;;;;;;12.60;4.67;;;18.70;99.90;;;;;;4993729;28;20042;-73
2023/05/14 09:43:25;;;;;;;10.20;4.60;;;18.70;99.90;;;;;;4996164;28;20058;-72
2023/05/14 09:45:54;;;;;;;10.80;4.77;;;18.60;99.90;;;;;;4997510;28;20466;-72
2023/05/14 09:48:21;;;;;;;11.40;4.90;;;18.50;99.90;;;;;;4997428;28;20062;-71
2023/05/14 09:50:46;;;;;;;11.67;5.17;;;18.40;99.90;;;;;;4997452;28;20125;-72
2023/05/14 09:53:13;;;;;;;10.53;4.83;;;18.30;99.90;;;;;;4997370;28;20203;-72
2023/05/14 09:55:39;;;;;;;10.70;5.07;;;18.30;99.90;;;;;;4997352;28;20050;-71
2023/05/14 09:58:05;;;;;;;10.50;5.07;;;18.20;99.90;;;;;;4996203;28;20057;-71
2023/05/14 10:00:32;;;;;;;11.47;4.97;;;18.20;99.90;;;;;;4997590;28;20057;-71
2023/05/14 10:03:01;;;;;;;10.37;4.87;;;18.30;99.90;;;;;;4997493;28;20077;-71
2023/05/14 10:05:28;;;;;;;9.17;4.83;;;18.30;99.90;;;;;;4996167;28;20126;-71
2023/05/14 10:07:58;;;;;;;9.13;4.67;;;18.50;99.90;;;;;;4997152;28;20046;-70
2023/05/14 10:10:28;;;;;;;11.40;4.73;;;18.50;99.90;;;;;;4996620;28;20137;-72
2023/05/14 10:13:10;;;;;;;10.43;5.20;;;18.60;99.90;;;;;;4996869;28;20042;-72
2023/05/14 10:15:41;;;;;;;11.60;4.93;;;18.60;99.90;;;;;;4996909;28;20059;-71
2023/05/14 10:18:12;;;;;;;9.13;4.67;;;18.60;99.90;;;;;;4996737;28;20355;-73
2023/05/14 10:20:40;;;;;;;12.00;5.20;;;18.70;99.90;;;;;;4997273;28;20368;-72
2023/05/14 10:23:06;;;;;;;12.70;5.13;;;18.70;99.90;;;;;;4995738;28;20059;-72
2023/05/14 10:25:34;;;;;;;10.50;5.40;;;18.70;99.90;;;;;;4995540;28;20054;-72
2023/05/14 10:28:00;;;;;;;8.50;4.73;;;18.80;99.90;;;;;;4995673;28;20058;-72
2023/05/14 10:30:26;;;;;;;10.63;4.67;;;18.80;99.90;;;;;;4996698;28;20086;-75
2023/05/14 10:33:10;;;;;;;10.53;5.43;;;18.80;99.90;;;;;;4996585;28;20046;-75
2023/05/14 10:35:55;;;;;;;12.87;5.63;;;18.80;99.90;;;;;;4996594;28;20089;-75
2023/05/14 10:38:28;;;;;;;11.90;5.90;;;18.90;99.90;;;;;;4996600;28;20086;-74
2023/05/14 10:40:58;;;;;;;13.90;4.97;;;19.00;99.90;;;;;;4996510;28;20092;-74
2023/05/14 10:43:27;;;;;;;9.77;5.37;;;19.10;99.90;;;;;;4996767;28;20394;-75
2023/05/14 10:45:53;;;;;;;9.80;4.70;;;19.00;99.90;;;;;;4995505;28;20078;-74
2023/05/14 10:48:19;;;;;;;10.27;4.83;;;19.00;99.90;;;;;;4995226;28;20046;-76
2023/05/14 10:50:47;;;;;;;10.10;5.07;;;19.00;99.90;;;;;;4996301;28;20100;-74
2023/05/14 10:53:14;;;;;;;13.70;5.13;;;19.00;99.90;;;;;;4995052;28;20046;-73
2023/05/14 10:55:42;;;;;;;14.83;4.93;;;19.00;99.90;;;;;;4996312;28;20073;-72
2023/05/14 10:58:09;;;;;;;9.67;4.20;;;19.10;99.90;;;;;;4996136;28;20356;-73
2023/05/14 11:00:36;;;;;;;9.47;4.83;;;19.20;99.90;;;;;;4996054;28;20050;-74
2023/05/14 11:03:06;;;;;;;12.20;4.87;;;19.30;99.90;;;;;;4995275;28;20371;-75
2023/05/14 11:05:34;;;;;;;10.50;6.07;;;19.30;99.90;;;;;;4994943;28;20126;-74
2023/05/14 11:08:04;;;;;;;11.80;4.90;;;19.30;99.90;;;;;;4996088;28;20101;-78
2023/05/14 11:10:31;;;;;;;9.67;5.00;;;19.30;99.90;;;;;;4995537;28;20065;-74
2023/05/14 11:12:57;;;;;;;13.17;5.27;;;19.30;99.90;;;;;;4995435;28;20050;-73
2023/05/14 11:15:25;;;;;;;8.73;4.73;;;19.30;99.90;;;;;;4995590;28;20490;-74
2023/05/14 11:17:52;;;;;;;11.60;5.57;;;19.30;99.90;;;;;;4995686;28;20058;-73
2023/05/14 11:20:19;;;;;;;11.00;4.83;;;19.30;99.90;;;;;;4994896;28;20486;-73
2023/05/14 11:22:46;;;;;;;9.30;5.23;;;19.30;99.90;;;;;;4996089;28;20054;-74
2023/05/14 11:25:13;;;;;;;10.70;5.20;;;19.30;99.90;;;;;;4995102;28;20058;-73
2023/05/14 11:27:41;;;;;;;11.57;6.73;;;19.30;99.90;;;;;;4995730;28;20052;-74
2023/05/14 11:30:17;;;;;;;11.17;5.30;;;19.30;99.90;;;;;;4995637;28;20054;-74
2023/05/14 11:32:45;;;;;;;11.43;5.00;;;19.30;99.90;;;;;;4995020;28;20046;-74
2023/05/14 11:35:11;;;;;;;7.50;4.97;;;19.40;99.90;;;;;;4995725;28;20144;-74
2023/05/14 11:37:37;;;;;;;10.60;5.70;;;19.50;99.90;;;;;;4995467;28;20061;-74
2023/05/14 11:40:09;;;;;;;8.93;5.30;;;19.50;99.90;;;;;;4994635;28;20065;-74
2023/05/14 11:42:36;;;;;;;8.07;4.80;;;19.50;99.90;;;;;;4995702;28;20049;-75
2023/05/14 11:45:01;;;;;;;10.73;5.27;;;19.50;99.90;;;;;;4994099;28;20085;-74
2023/05/14 11:47:28;;;;;;;10.00;5.23;;;19.50;99.90;;;;;;4995283;28;20085;-74
2023/05/14 11:49:54;;;;;;;8.07;5.33;;;19.50;99.90;;;;;;4995316;28;20092;-74
2023/05/14 11:52:20;;;;;;;8.70;5.30;;;19.50;99.90;;;;;;4995211;28;20129;-74
2023/05/14 11:54:48;;;;;;;9.27;5.37;;;19.60;99.90;;;;;;4995194;28;20045;-74
2023/05/14 11:57:21;;;;;;;12.90;5.43;;;19.60;99.90;;;;;;4995747;28;20080;-74
2023/05/14 11:59:48;;;;;;;8.23;4.80;;;19.80;99.90;;;;;;4995111;28;20054;-74
2023/05/14 12:02:17;;;;;;;10.30;5.50;;;19.80;99.90;;;;;;4995841;28;20050;-74
2023/05/14 12:04:43;;;;;;;9.27;4.50;;;19.90;99.90;;;;;;4994372;28;20046;-74
2023/05/14 12:07:10;;;;;;;8.40;4.27;;;19.90;99.90;;;;;;4994613;28;20042;-72
2023/05/14 12:09:42;;;;;;;11.93;4.97;;;20.10;99.90;;;;;;4994307;28;20170;-75
2023/05/14 12:12:10;;;;;;;11.20;5.23;;;20.30;99.90;;;;;;4993721;28;20050;-74
2023/05/14 12:14:38;;;;;;;11.77;4.60;;;20.40;99.90;;;;;;4994873;28;20100;-74
2023/05/14 12:17:13;;;;;;;10.83;4.57;;;20.50;99.90;;;;;;4994140;28;20129;-74
2023/05/14 12:19:40;;;;;;;7.47;4.00;;;20.60;99.90;;;;;;4994831;28;20129;-74
2023/05/14 12:22:08;;;;;;;9.63;4.43;;;20.70;99.90;;;;;;4994779;28;20414;-74
2023/05/14 12:24:33;;;;;;;9.33;4.53;;;20.70;99.90;;;;;;4977576;28;20046;-74
2023/05/14 12:27:01;;;;;;;10.43;4.60;;;20.80;99.90;;;;;;4994658;28;20141;-74
2023/05/14 12:29:26;;;;;;;12.67;5.60;;;21.00;99.90;;;;;;4993357;28;20042;-76
2023/05/14 12:31:52;;;;;;;12.57;5.30;;;21.00;99.90;;;;;;4994335;28;20478;-74
2023/05/14 12:34:18;;;;;;;14.50;5.50;;;21.00;99.90;;;;;;4993544;28;20046;-75